createdAt,value
2019-02-11T00:00:34.515Z,65.14
2019-02-11T00:03:03.079Z,64.11
2019-02-11T00:05:31.886Z,64.06
2019-02-11T00:08:00.458Z,63.04
2019-02-11T00:10:29.082Z,63.09
2019-02-11T00:12:57.652Z,62.84
2019-02-11T00:15:26.171Z,62.73
2019-02-11T00:17:54.821Z,63.00
2019-02-11T00:20:23.366Z,63.03
2019-02-11T00:22:52.131Z,62.22
2019-02-11T00:25:20.541Z,61.48
2019-02-11T00:27:49.028Z,62.08
2019-02-11T00:30:17.612Z,61.81
2019-02-11T00:32:46.211Z,62.18
2019-02-11T00:35:14.891Z,61.86
2019-02-11T00:37:43.432Z,62.31
2019-02-11T00:40:11.964Z,62.62
2019-02-11T00:42:40.536Z,62.40
2019-02-11T00:45:09.925Z,61.54
2019-02-11T00:47:38.576Z,62.32
2019-02-11T00:50:10.479Z,61.94
2019-02-11T00:52:39.134Z,62.38
2019-02-11T00:55:07.718Z,62.94
2019-02-11T00:57:36.127Z,62.66
2019-02-11T01:00:07.079Z,62.83
2019-02-11T01:02:35.651Z,62.68
2019-02-11T01:05:05.997Z,62.80
2019-02-11T01:07:34.560Z,62.46
2019-02-11T01:10:03.162Z,62.66
2019-02-11T01:12:31.727Z,62.82
2019-02-11T01:15:00.308Z,62.73
2019-02-11T01:17:29.100Z,62.43
2019-02-11T01:19:57.626Z,63.02
2019-02-11T01:22:38.422Z,63.63
2019-02-11T01:25:08.713Z,63.27
2019-02-11T01:27:37.586Z,63.54
2019-02-11T01:30:11.609Z,63.37
2019-02-11T01:32:40.165Z,63.05
2019-02-11T01:35:08.790Z,63.34
2019-02-11T01:37:37.375Z,63.56
2019-02-11T01:40:09.508Z,63.50
2019-02-11T01:42:38.149Z,63.64
2019-02-11T01:45:09.986Z,63.66
2019-02-11T01:47:38.608Z,63.65
2019-02-11T01:50:10.554Z,63.63
2019-02-11T01:52:39.229Z,63.84
2019-02-11T01:55:07.888Z,63.42
2019-02-11T01:57:36.408Z,63.45
2019-02-11T02:00:07.637Z,63.70
2019-02-11T02:02:35.968Z,63.58
2019-02-11T02:05:05.908Z,63.44
2019-02-11T02:07:34.405Z,63.58
2019-02-11T02:10:05.431Z,63.61
2019-02-11T02:12:34.105Z,63.45
2019-02-11T02:15:02.669Z,63.84
2019-02-11T02:17:31.304Z,64.10
2019-02-11T02:19:59.996Z,63.99
2019-02-11T02:22:28.620Z,63.80
2019-02-11T02:24:57.293Z,63.87
2019-02-11T02:27:25.896Z,63.96
2019-02-11T02:29:54.650Z,64.29
2019-02-11T02:32:23.336Z,64.29
2019-02-11T02:34:51.971Z,64.32
2019-02-11T02:37:20.466Z,64.14
2019-02-11T02:39:49.181Z,64.13
2019-02-11T02:42:17.803Z,63.91
2019-02-11T02:44:46.441Z,64.38
2019-02-11T02:47:15.011Z,64.96
2019-02-11T02:49:43.627Z,64.54
2019-02-11T02:52:12.292Z,64.70
2019-02-11T02:54:40.846Z,64.67
2019-02-11T02:57:09.470Z,64.63
2019-02-11T02:59:38.182Z,64.71
2019-02-11T03:02:06.794Z,64.52
2019-02-11T03:04:35.774Z,64.23
2019-02-11T03:07:04.430Z,64.54
2019-02-11T03:09:34.197Z,64.53
2019-02-11T03:12:02.613Z,65.09
2019-02-11T03:14:31.331Z,65.45
2019-02-11T03:17:00.020Z,65.41
2019-02-11T03:19:28.662Z,65.99
2019-02-11T03:21:57.385Z,66.13
2019-02-11T03:24:25.944Z,66.11
2019-02-11T03:26:54.331Z,66.21
2019-02-11T03:29:22.745Z,66.70
2019-02-11T03:31:51.426Z,66.70
2019-02-11T03:34:20.416Z,66.52
2019-02-11T03:36:49.307Z,66.66
2019-02-11T03:39:18.467Z,66.80
2019-02-11T03:41:47.102Z,66.97
2019-02-11T03:44:15.855Z,66.61
2019-02-11T03:46:44.771Z,66.91
2019-02-11T03:49:13.454Z,66.71
2019-02-11T03:51:42.140Z,66.72
2019-02-11T03:54:10.872Z,66.70
2019-02-11T03:56:39.434Z,66.99
2019-02-11T03:59:07.848Z,67.20
2019-02-11T04:01:36.439Z,67.61
2019-02-11T04:04:05.144Z,67.61
2019-02-11T04:06:33.674Z,67.56
2019-02-11T04:09:02.464Z,67.94
2019-02-11T04:11:31.028Z,68.50
2019-02-11T04:13:59.764Z,68.51
2019-02-11T04:16:28.468Z,68.33
2019-02-11T04:18:57.076Z,68.10
2019-02-11T04:21:25.944Z,67.91
2019-02-11T04:23:54.322Z,67.43
2019-02-11T04:26:22.821Z,68.51
2019-02-11T04:28:51.735Z,69.58
2019-02-11T04:31:20.367Z,70.23
2019-02-11T04:33:49.234Z,70.80
2019-02-11T04:36:17.943Z,71.19
2019-02-11T04:38:46.588Z,72.15
2019-02-11T04:41:17.913Z,73.26
2019-02-11T04:43:46.648Z,73.71
2019-02-11T04:46:15.453Z,74.46
2019-02-11T04:48:44.209Z,74.88
2019-02-11T04:51:12.788Z,75.16
2019-02-11T04:53:41.715Z,76.14
2019-02-11T04:56:10.369Z,75.82
2019-02-11T04:58:39.212Z,76.87
2019-02-11T05:01:08.099Z,76.48
2019-02-11T05:03:36.787Z,76.82
2019-02-11T05:06:05.879Z,77.50
2019-02-11T05:08:34.445Z,77.61
2019-02-11T05:11:03.275Z,77.07
2019-02-11T05:13:32.093Z,76.98
2019-02-11T05:16:00.912Z,77.22
2019-02-11T05:18:29.620Z,76.14
2019-02-11T05:20:58.500Z,76.68
2019-02-11T05:23:27.230Z,76.43
2019-02-11T05:25:56.020Z,75.47
2019-02-11T05:28:24.854Z,75.43
2019-02-11T05:30:53.742Z,74.99
2019-02-11T05:33:22.537Z,74.84
2019-02-11T05:35:51.190Z,74.51
2019-02-11T05:38:20.012Z,74.62
2019-02-11T05:40:48.795Z,74.20
2019-02-11T05:43:17.607Z,73.85
2019-02-11T05:45:46.474Z,73.93
2019-02-11T05:48:16.967Z,73.31
2019-02-11T05:50:45.856Z,73.37
2019-02-11T05:53:14.543Z,72.67
2019-02-11T05:55:43.627Z,72.91
2019-02-11T05:58:12.256Z,72.51
2019-02-11T06:00:41.124Z,72.24
2019-02-11T06:03:09.911Z,71.30
2019-02-11T06:05:38.732Z,71.38
2019-02-11T06:08:07.566Z,71.48
2019-02-11T06:10:36.347Z,71.01
2019-02-11T06:13:05.117Z,70.22
2019-02-11T06:15:33.944Z,70.07
2019-02-11T06:18:02.731Z,69.82
2019-02-11T06:20:31.526Z,70.32
2019-02-11T06:23:00.301Z,70.94
2019-02-11T06:25:29.265Z,70.21
2019-02-11T06:27:57.976Z,69.17
2019-02-11T06:30:26.664Z,68.93
2019-02-11T06:32:55.526Z,69.39
2019-02-11T06:35:24.335Z,69.17
2019-02-11T06:37:53.087Z,68.34
2019-02-11T06:40:21.922Z,67.83
2019-02-11T06:42:50.697Z,68.32
2019-02-11T06:45:21.122Z,67.92
2019-02-11T06:47:49.929Z,67.62
2019-02-11T06:50:18.312Z,67.68
2019-02-11T06:52:47.144Z,67.72
2019-02-11T06:55:15.950Z,66.89
2019-02-11T06:57:44.590Z,66.71
2019-02-11T07:00:15.003Z,66.87
2019-02-11T07:02:43.793Z,66.39
2019-02-11T07:05:12.298Z,66.46
2019-02-11T07:07:41.023Z,66.24
2019-02-11T07:10:12.835Z,65.91
2019-02-11T07:12:42.344Z,66.95
2019-02-11T07:15:21.296Z,66.71
2019-02-11T07:17:43.899Z,65.96
2019-02-11T07:20:12.775Z,64.98
2019-02-11T07:22:41.742Z,65.70
2019-02-11T07:25:10.527Z,66.13
2019-02-11T07:27:39.314Z,66.19
2019-02-11T07:30:10.805Z,65.78
2019-02-11T07:32:39.694Z,65.84
2019-02-11T07:35:08.587Z,65.59
2019-02-11T07:37:37.072Z,65.54
2019-02-11T07:40:12.488Z,66.23
2019-02-11T07:42:43.024Z,66.99
2019-02-11T07:45:29.833Z,67.52
2019-02-11T07:47:53.252Z,67.26
2019-02-11T07:50:22.123Z,66.79
2019-02-11T07:52:50.570Z,66.52
2019-02-11T07:55:19.075Z,66.81
2019-02-11T07:57:47.494Z,66.25
2019-02-11T08:00:16.001Z,66.55
2019-02-11T08:02:44.482Z,66.04
2019-02-11T08:05:13.603Z,65.98
2019-02-11T08:07:42.298Z,66.34
2019-02-11T08:10:11.256Z,65.70
2019-02-11T08:12:39.652Z,65.17
2019-02-11T08:15:09.678Z,65.31
2019-02-11T08:17:38.294Z,65.45
2019-02-11T08:20:09.168Z,65.67
2019-02-11T08:22:37.753Z,64.66
2019-02-11T08:25:06.592Z,64.56
2019-02-11T08:27:35.454Z,64.70
2019-02-11T08:30:11.326Z,63.76
2019-02-11T08:32:39.962Z,63.13
2019-02-11T08:35:08.898Z,62.00
2019-02-11T08:37:37.353Z,62.48
2019-02-11T08:40:08.246Z,62.62
2019-02-11T08:42:36.678Z,61.14
2019-02-11T08:45:07.646Z,60.70
2019-02-11T08:47:36.126Z,61.13
2019-02-11T08:50:06.957Z,60.92
2019-02-11T08:52:35.442Z,60.65
2019-02-11T08:55:04.130Z,60.29
2019-02-11T08:57:33.678Z,59.22
2019-02-11T09:00:02.084Z,59.76
2019-02-11T09:02:30.766Z,59.34
2019-02-11T09:04:59.632Z,58.53
2019-02-11T09:07:28.081Z,58.50
2019-02-11T09:09:57.113Z,57.34
2019-02-11T09:12:26.147Z,57.68
2019-02-11T09:14:55.161Z,58.03
2019-02-11T09:17:23.842Z,57.51
2019-02-11T09:19:52.266Z,57.71
2019-02-11T09:22:20.702Z,56.54
2019-02-11T09:24:49.227Z,55.58
2019-02-11T09:27:17.934Z,53.65
2019-02-11T09:29:46.518Z,54.18
2019-02-11T09:32:15.132Z,53.97
2019-02-11T09:34:43.688Z,54.17
2019-02-11T09:37:12.370Z,54.49
2019-02-11T09:39:40.886Z,51.99
2019-02-11T09:42:09.274Z,52.12
2019-02-11T09:44:38.230Z,46.52
2019-02-11T09:47:07.297Z,51.86
2019-02-11T09:49:35.890Z,53.47
2019-02-11T09:52:05.280Z,54.42
2019-02-11T09:54:33.775Z,55.26
2019-02-11T09:57:02.213Z,56.21
2019-02-11T09:59:31.484Z,56.17
2019-02-11T10:01:59.888Z,56.97
2019-02-11T10:04:28.459Z,56.74
2019-02-11T10:06:57.100Z,57.06
2019-02-11T10:09:25.552Z,56.86
2019-02-11T10:11:54.090Z,57.12
2019-02-11T10:14:22.864Z,56.79
2019-02-11T10:16:51.261Z,56.67
2019-02-11T10:19:19.850Z,57.16
2019-02-11T10:21:49.577Z,57.69
2019-02-11T10:24:18.059Z,56.47
2019-02-11T10:26:47.214Z,55.85
2019-02-11T10:29:16.182Z,55.91
2019-02-11T10:31:44.604Z,56.08
2019-02-11T10:34:13.166Z,54.95
2019-02-11T10:36:41.780Z,54.04
2019-02-11T10:39:10.694Z,53.84
2019-02-11T10:41:39.665Z,53.38
2019-02-11T10:44:08.470Z,53.70
2019-02-11T10:46:36.919Z,53.86
2019-02-11T10:49:05.574Z,53.30
2019-02-11T10:51:34.591Z,53.57
2019-02-11T10:54:03.457Z,53.06
2019-02-11T10:56:32.306Z,40.72
2019-02-11T10:59:01.222Z,35.09
2019-02-11T11:01:30.136Z,31.64
2019-02-11T11:03:59.270Z,34.22
2019-02-11T11:06:27.666Z,43.94
2019-02-11T11:08:56.468Z,46.85
2019-02-11T11:11:25.490Z,46.96
2019-02-11T11:13:54.276Z,48.79
2019-02-11T11:16:29.410Z,48.35
2019-02-11T11:18:53.646Z,49.00
2019-02-11T11:21:22.531Z,49.78
2019-02-11T11:23:53.124Z,50.25
2019-02-11T11:26:22.114Z,50.24
2019-02-11T11:28:51.151Z,50.40
2019-02-11T11:31:20.252Z,49.84
2019-02-11T11:33:48.845Z,49.88
2019-02-11T11:36:18.077Z,49.76
2019-02-11T11:38:47.762Z,49.36
2019-02-11T11:41:16.538Z,48.11
2019-02-11T11:43:45.499Z,49.43
2019-02-11T11:46:14.496Z,49.85
2019-02-11T11:48:43.308Z,50.53
2019-02-11T11:51:12.395Z,50.26
2019-02-11T11:53:41.354Z,50.51
2019-02-11T11:56:10.286Z,51.03
2019-02-11T11:58:39.210Z,50.81
2019-02-11T12:01:08.270Z,51.60
2019-02-11T12:03:37.116Z,51.68
2019-02-11T12:06:05.599Z,51.64
2019-02-11T12:08:34.342Z,51.67
2019-02-11T12:11:03.315Z,51.66
2019-02-11T12:13:32.138Z,51.47
2019-02-11T12:16:01.142Z,52.23
2019-02-11T12:18:30.022Z,51.44
2019-02-11T12:20:59.007Z,51.47
2019-02-11T12:23:27.463Z,51.31
2019-02-11T12:25:56.517Z,51.35
2019-02-11T12:28:25.524Z,51.32
2019-02-11T12:30:54.630Z,50.97
2019-02-11T12:33:23.347Z,50.64
2019-02-11T12:35:52.398Z,48.32
2019-02-11T12:38:21.394Z,49.10
2019-02-11T12:40:50.443Z,49.95
2019-02-11T12:43:19.432Z,50.44
2019-02-11T12:45:48.441Z,50.38
2019-02-11T12:48:17.425Z,50.11
2019-02-11T12:50:46.380Z,49.76
2019-02-11T12:53:15.426Z,51.59
2019-02-11T12:55:44.477Z,52.02
2019-02-11T12:58:13.294Z,52.94
2019-02-11T13:00:42.302Z,52.06
2019-02-11T13:03:11.377Z,52.02
2019-02-11T13:05:44.982Z,52.83
2019-02-11T13:08:10.394Z,50.81
2019-02-11T13:10:39.486Z,48.87
2019-02-11T13:13:08.604Z,48.54
2019-02-11T13:15:59.030Z,50.65
2019-02-11T13:18:08.625Z,51.03
2019-02-11T13:20:37.404Z,50.57
2019-02-11T13:23:06.331Z,44.53
2019-02-11T13:25:35.413Z,40.12
2019-02-11T13:28:04.432Z,40.73
2019-02-11T13:30:33.506Z,37.23
2019-02-11T13:33:02.478Z,36.37
2019-02-11T13:35:31.475Z,37.48
2019-02-11T13:37:59.941Z,40.43
2019-02-11T13:40:28.740Z,42.12
2019-02-11T13:42:57.275Z,42.86
2019-02-11T13:45:26.295Z,43.31
2019-02-11T13:47:58.187Z,44.26
2019-02-11T13:50:27.100Z,42.94
2019-02-11T13:52:56.089Z,42.03
2019-02-11T13:55:30.031Z,41.26
2019-02-11T13:57:55.875Z,41.95
2019-02-11T14:00:27.609Z,42.66
2019-02-11T14:03:00.523Z,42.11
2019-02-11T14:05:30.754Z,41.81
2019-02-11T14:08:01.514Z,41.63
2019-02-11T14:10:30.879Z,43.08
2019-02-11T14:12:59.995Z,44.14
2019-02-11T14:15:29.128Z,45.26
2019-02-11T14:18:11.675Z,45.64
2019-02-11T14:20:36.582Z,46.20
2019-02-11T14:23:06.041Z,46.43
2019-02-11T14:25:43.878Z,46.45
2019-02-11T14:28:05.519Z,46.92
2019-02-11T14:30:33.968Z,48.07
2019-02-11T14:33:02.578Z,47.56
2019-02-11T14:35:31.040Z,48.14
2019-02-11T14:38:02.363Z,48.30
2019-02-11T14:40:30.310Z,48.24
2019-02-11T14:42:58.817Z,48.00
2019-02-11T14:45:27.337Z,48.16
2019-02-11T14:47:56.362Z,48.53
2019-02-11T14:50:24.760Z,48.54
2019-02-11T14:52:53.592Z,49.11
2019-02-11T14:55:22.070Z,49.56
2019-02-11T14:57:51.068Z,48.91
2019-02-11T15:00:21.452Z,49.11
2019-02-11T15:02:50.001Z,49.41
2019-02-11T15:05:19.436Z,49.64
2019-02-11T15:07:48.600Z,49.66
2019-02-11T15:10:19.546Z,51.09
2019-02-11T15:12:48.360Z,51.19
2019-02-11T15:15:16.764Z,51.46
2019-02-11T15:17:46.788Z,51.21
2019-02-11T15:20:16.944Z,50.87
2019-02-11T15:22:45.372Z,50.96
2019-02-11T15:25:18.780Z,51.03
2019-02-11T15:27:47.282Z,51.16
2019-02-11T15:30:18.118Z,51.02
2019-02-11T15:32:47.130Z,51.46
2019-02-11T15:35:15.705Z,51.52
2019-02-11T15:37:44.105Z,51.81
2019-02-11T15:40:18.679Z,51.85
2019-02-11T15:42:47.742Z,51.76
2019-02-11T15:45:16.197Z,51.96
2019-02-11T15:47:45.545Z,51.84
2019-02-11T15:50:16.635Z,51.60
2019-02-11T15:52:45.085Z,51.81
2019-02-11T15:55:16.281Z,51.68
2019-02-11T15:57:44.761Z,52.35
2019-02-11T16:00:19.800Z,52.29
2019-02-11T16:02:48.426Z,52.10
2019-02-11T16:05:16.992Z,52.51
2019-02-11T16:07:46.240Z,52.18
2019-02-11T16:10:20.733Z,52.57
2019-02-11T16:12:49.862Z,52.54
2019-02-11T16:15:19.375Z,52.41
2019-02-11T16:17:48.074Z,53.33
2019-02-11T16:20:16.829Z,52.77
2019-02-11T16:22:45.310Z,53.07
2019-02-11T16:25:15.430Z,52.95
2019-02-11T16:27:44.037Z,52.76
2019-02-11T16:30:14.627Z,53.30
2019-02-11T16:32:43.699Z,53.33
2019-02-11T16:35:13.940Z,54.73
2019-02-11T16:37:43.033Z,53.32
2019-02-11T16:40:14.262Z,53.49
2019-02-11T16:42:43.198Z,53.38
2019-02-11T16:45:11.890Z,52.92
2019-02-11T16:47:40.322Z,53.33
2019-02-11T16:50:11.286Z,53.10
2019-02-11T16:52:39.679Z,53.29
2019-02-11T16:55:09.968Z,53.17
2019-02-11T16:57:38.492Z,53.44
2019-02-11T17:00:19.681Z,53.51
2019-02-11T17:02:48.305Z,53.67
2019-02-11T17:05:17.505Z,54.00
2019-02-11T17:07:46.171Z,54.14
2019-02-11T17:10:15.483Z,54.21
2019-02-11T17:12:43.954Z,54.40
2019-02-11T17:15:20.800Z,54.66
2019-02-11T17:17:49.463Z,54.87
2019-02-11T17:20:20.113Z,54.97
2019-02-11T17:22:49.319Z,55.37
2019-02-11T17:25:17.917Z,55.67
2019-02-11T17:27:46.949Z,55.43
2019-02-11T17:30:21.581Z,55.62
2019-02-11T17:32:50.413Z,55.61
2019-02-11T17:35:19.502Z,55.80
2019-02-11T17:37:48.042Z,55.49
2019-02-11T17:40:17.105Z,56.43
2019-02-11T17:42:45.644Z,56.79
2019-02-11T17:45:26.692Z,56.60
2019-02-11T17:47:55.244Z,57.12
2019-02-11T17:50:23.755Z,57.44
2019-02-11T17:52:55.674Z,58.34
2019-02-11T17:55:24.824Z,58.23
2019-02-11T17:57:53.716Z,58.46
2019-02-11T18:00:30.381Z,59.41
2019-02-11T18:03:01.091Z,59.57
2019-02-11T18:05:30.897Z,59.55
2019-02-11T18:07:59.277Z,59.51
2019-02-11T18:10:28.250Z,59.08
2019-02-11T18:12:57.038Z,59.55
2019-02-11T18:15:26.043Z,58.85
2019-02-11T18:17:54.494Z,58.79
2019-02-11T18:20:24.722Z,58.99
2019-02-11T18:22:53.370Z,60.91
2019-02-11T18:25:22.278Z,61.72
2019-02-11T18:27:51.371Z,62.70
2019-02-11T18:30:20.111Z,63.04
2019-02-11T18:32:49.277Z,63.92
2019-02-11T18:35:20.321Z,64.20
2019-02-11T18:37:49.342Z,64.60
2019-02-11T18:40:18.423Z,63.85
2019-02-11T18:42:47.325Z,63.33
2019-02-11T18:45:17.214Z,63.67
2019-02-11T18:47:46.297Z,63.82
2019-02-11T18:50:16.498Z,64.13
2019-02-11T18:52:45.336Z,64.02
2019-02-11T18:55:20.129Z,64.28
2019-02-11T18:57:48.526Z,63.75
2019-02-11T19:00:21.340Z,63.79
2019-02-11T19:02:50.221Z,63.34
2019-02-11T19:05:19.372Z,63.01
2019-02-11T19:07:48.214Z,62.82
2019-02-11T19:10:20.524Z,62.53
2019-02-11T19:12:49.443Z,62.81
2019-02-11T19:15:19.447Z,62.92
2019-02-11T19:17:48.155Z,62.49
2019-02-11T19:20:17.836Z,63.37
2019-02-11T19:22:46.978Z,63.37
2019-02-11T19:25:15.613Z,61.96
2019-02-11T19:27:44.109Z,61.20
2019-02-11T19:30:16.541Z,60.85
2019-02-11T19:32:45.562Z,60.92
2019-02-11T19:35:14.423Z,60.29
2019-02-11T19:37:43.403Z,60.45
2019-02-11T19:40:14.279Z,60.61
2019-02-11T19:42:42.824Z,61.19
2019-02-11T19:45:13.821Z,61.46
2019-02-11T19:47:44.386Z,61.57
2019-02-11T19:50:15.227Z,61.24
2019-02-11T19:52:46.670Z,61.50
2019-02-11T19:55:17.585Z,61.72
2019-02-11T19:57:46.258Z,62.05
2019-02-11T20:00:18.777Z,62.25
2019-02-11T20:03:08.155Z,62.15
2019-02-11T20:05:36.937Z,62.12
2019-02-11T20:08:05.713Z,62.10
2019-02-11T20:10:34.827Z,62.22
2019-02-11T20:13:03.976Z,62.40
2019-02-11T20:15:37.897Z,62.36
2019-02-11T20:18:07.115Z,62.88
2019-02-11T20:20:36.965Z,62.67
2019-02-11T20:23:05.958Z,62.65
2019-02-11T20:25:34.951Z,63.23
2019-02-11T20:28:03.707Z,63.22
2019-02-11T20:30:32.971Z,64.04
2019-02-11T20:33:01.648Z,63.67
2019-02-11T20:35:30.649Z,63.51
2019-02-11T20:37:59.605Z,63.36
2019-02-11T20:40:29.995Z,63.57
2019-02-11T20:42:58.630Z,63.87
2019-02-11T20:45:28.727Z,64.22
2019-02-11T20:47:57.291Z,63.94
2019-02-11T20:50:26.073Z,64.15
2019-02-11T20:52:54.973Z,63.60
2019-02-11T20:55:23.823Z,63.75
2019-02-11T20:57:58.787Z,64.58
2019-02-11T21:00:27.751Z,65.15
2019-02-11T21:02:56.294Z,65.62
2019-02-11T21:05:25.003Z,65.69
2019-02-11T21:07:53.989Z,65.86
2019-02-11T21:10:24.340Z,66.76
2019-02-11T21:12:52.859Z,66.75
2019-02-11T21:15:21.334Z,67.46
2019-02-11T21:17:50.938Z,67.40
2019-02-11T21:20:31.636Z,66.40
2019-02-11T21:23:00.288Z,67.35
2019-02-11T21:25:29.181Z,67.48
2019-02-11T21:27:58.043Z,67.18
2019-02-11T21:30:27.011Z,67.36
2019-02-11T21:32:55.829Z,68.09
2019-02-11T21:35:24.914Z,68.08
2019-02-11T21:37:53.759Z,68.14
2019-02-11T21:40:22.611Z,67.74
2019-02-11T21:42:51.515Z,67.88
2019-02-11T21:45:20.606Z,67.87
2019-02-11T21:47:49.711Z,67.89
2019-02-11T21:50:26.357Z,67.93
2019-02-11T21:52:50.759Z,67.96
2019-02-11T21:55:25.049Z,68.53
2019-02-11T21:57:53.940Z,68.30
2019-02-11T22:00:23.821Z,68.08
2019-02-11T22:02:53.175Z,68.18
2019-02-11T22:05:21.562Z,68.70
2019-02-11T22:07:50.557Z,68.78
2019-02-11T22:10:21.228Z,69.07
2019-02-11T22:12:49.837Z,69.16
2019-02-11T22:15:18.241Z,69.39
2019-02-11T22:17:47.177Z,69.55
2019-02-11T22:20:21.034Z,69.32
2019-02-11T22:22:49.967Z,69.30
2019-02-11T22:25:18.890Z,68.82
2019-02-11T22:27:47.844Z,68.87
2019-02-11T22:30:19.567Z,68.98
2019-02-11T22:32:48.660Z,68.13
2019-02-11T22:35:17.627Z,68.47
2019-02-11T22:37:47.738Z,68.23
2019-02-11T22:40:16.734Z,68.23
2019-02-11T22:42:45.863Z,68.11
2019-02-11T22:45:22.257Z,67.86
2019-02-11T22:47:50.679Z,68.18
2019-02-11T22:50:19.586Z,68.06
2019-02-11T22:52:48.179Z,68.07
2019-02-11T22:55:16.923Z,68.37
2019-02-11T22:57:45.865Z,68.45
2019-02-11T23:00:25.017Z,68.56
2019-02-11T23:02:53.659Z,68.93
2019-02-11T23:05:22.109Z,68.66
2019-02-11T23:07:50.791Z,68.97
2019-02-11T23:10:19.721Z,69.34
2019-02-11T23:12:48.472Z,69.46
2019-02-11T23:15:17.367Z,69.50
2019-02-11T23:17:46.636Z,69.79
2019-02-11T23:20:15.305Z,69.59
2019-02-11T23:22:44.091Z,70.20
2019-02-11T23:25:13.853Z,70.28
2019-02-11T23:27:42.823Z,69.54
2019-02-11T23:30:13.444Z,69.89
2019-02-11T23:32:43.215Z,70.04
2019-02-11T23:35:12.104Z,69.58
2019-02-11T23:37:40.957Z,70.02
2019-02-11T23:40:10.936Z,69.76
2019-02-11T23:42:39.746Z,69.49
2019-02-11T23:45:10.332Z,69.75
2019-02-11T23:47:39.267Z,69.90
2019-02-11T23:50:10.157Z,69.98
2019-02-11T23:52:39.100Z,69.66
2019-02-11T23:55:09.355Z,69.75
2019-02-11T23:57:37.890Z,69.34
